sensor_id;sensor_type;location;lat;lon;timestamp;P1;durP1;ratioP1;P2;durP2;ratioP2
73512;SDS011;61754;55.008;73.348;2022-07-23T00:01:19;10.18;;;2.88;;
73512;SDS011;61754;55.008;73.348;2022-07-23T00:03:45;4.00;;;2.95;;
73512;SDS011;61754;55.008;73.348;2022-07-23T00:06:22;4.47;;;2.95;;
73512;SDS011;61754;55.008;73.348;2022-07-23T00:08:48;6.68;;;2.83;;
73512;SDS011;61754;55.008;73.348;2022-07-23T00:11:14;4.00;;;2.75;;
73512;SDS011;61754;55.008;73.348;2022-07-23T00:13:43;4.68;;;2.72;;
73512;SDS011;61754;55.008;73.348;2022-07-23T00:16:09;10.73;;;2.67;;
73512;SDS011;61754;55.008;73.348;2022-07-23T00:18:35;5.50;;;3.00;;
73512;SDS011;61754;55.008;73.348;2022-07-23T00:21:06;3.53;;;2.58;;
73512;SDS011;61754;55.008;73.348;2022-07-23T00:23:32;4.60;;;3.03;;
73512;SDS011;61754;55.008;73.348;2022-07-23T00:25:58;8.52;;;2.95;;
73512;SDS011;61754;55.008;73.348;2022-07-23T00:28:24;7.78;;;3.08;;
73512;SDS011;61754;55.008;73.348;2022-07-23T00:30:50;8.90;;;4.40;;
73512;SDS011;61754;55.008;73.348;2022-07-23T00:33:17;8.98;;;3.30;;
73512;SDS011;61754;55.008;73.348;2022-07-23T00:35:43;6.78;;;3.35;;
73512;SDS011;61754;55.008;73.348;2022-07-23T00:38:09;8.57;;;2.50;;
73512;SDS011;61754;55.008;73.348;2022-07-23T00:40:41;6.10;;;2.90;;
73512;SDS011;61754;55.008;73.348;2022-07-23T00:43:07;11.18;;;3.70;;
73512;SDS011;61754;55.008;73.348;2022-07-23T00:45:33;11.82;;;3.33;;
73512;SDS011;61754;55.008;73.348;2022-07-23T00:48:00;8.57;;;3.58;;
73512;SDS011;61754;55.008;73.348;2022-07-23T00:50:26;6.10;;;3.30;;
73512;SDS011;61754;55.008;73.348;2022-07-23T00:52:52;6.50;;;3.08;;
73512;SDS011;61754;55.008;73.348;2022-07-23T00:55:19;7.75;;;3.33;;
73512;SDS011;61754;55.008;73.348;2022-07-23T00:57:45;8.18;;;3.50;;
73512;SDS011;61754;55.008;73.348;2022-07-23T01:00:21;4.38;;;3.17;;
73512;SDS011;61754;55.008;73.348;2022-07-23T01:02:47;6.63;;;3.40;;
73512;SDS011;61754;55.008;73.348;2022-07-23T01:05:15;9.02;;;3.40;;
73512;SDS011;61754;55.008;73.348;2022-07-23T01:07:51;3.42;;;3.13;;
73512;SDS011;61754;55.008;73.348;2022-07-23T01:10:17;5.72;;;3.63;;
73512;SDS011;61754;55.008;73.348;2022-07-23T01:15:31;9.23;;;3.67;;
73512;SDS011;61754;55.008;73.348;2022-07-23T01:18:03;8.00;;;3.75;;
73512;SDS011;61754;55.008;73.348;2022-07-23T01:20:30;7.43;;;3.75;;
73512;SDS011;61754;55.008;73.348;2022-07-23T01:22:57;7.85;;;3.85;;
73512;SDS011;61754;55.008;73.348;2022-07-23T01:25:23;7.45;;;3.78;;
73512;SDS011;61754;55.008;73.348;2022-07-23T01:28:03;4.60;;;3.47;;
73512;SDS011;61754;55.008;73.348;2022-07-23T01:30:29;4.35;;;3.30;;
73512;SDS011;61754;55.008;73.348;2022-07-23T01:32:57;6.88;;;3.95;;
73512;SDS011;61754;55.008;73.348;2022-07-23T01:35:24;6.45;;;4.00;;
73512;SDS011;61754;55.008;73.348;2022-07-23T01:37:57;4.85;;;3.42;;
73512;SDS011;61754;55.008;73.348;2022-07-23T01:40:23;11.02;;;4.10;;
73512;SDS011;61754;55.008;73.348;2022-07-23T01:42:50;7.65;;;3.70;;
73512;SDS011;61754;55.008;73.348;2022-07-23T01:45:17;10.60;;;4.05;;
73512;SDS011;61754;55.008;73.348;2022-07-23T01:47:48;8.50;;;4.03;;
73512;SDS011;61754;55.008;73.348;2022-07-23T01:50:24;7.20;;;4.07;;
73512;SDS011;61754;55.008;73.348;2022-07-23T01:53:19;9.35;;;4.00;;
73512;SDS011;61754;55.008;73.348;2022-07-23T01:55:45;8.23;;;3.85;;
73512;SDS011;61754;55.008;73.348;2022-07-23T01:58:12;5.80;;;3.92;;
73512;SDS011;61754;55.008;73.348;2022-07-23T02:00:38;6.03;;;4.05;;
73512;SDS011;61754;55.008;73.348;2022-07-23T02:03:04;5.40;;;3.90;;
73512;SDS011;61754;55.008;73.348;2022-07-23T02:05:32;5.88;;;4.47;;
73512;SDS011;61754;55.008;73.348;2022-07-23T02:07:59;9.40;;;5.22;;
73512;SDS011;61754;55.008;73.348;2022-07-23T02:10:25;8.43;;;6.18;;
73512;SDS011;61754;55.008;73.348;2022-07-23T02:12:52;7.78;;;6.72;;
73512;SDS011;61754;55.008;73.348;2022-07-23T02:15:18;8.20;;;7.40;;
73512;SDS011;61754;55.008;73.348;2022-07-23T02:17:44;13.77;;;7.47;;
73512;SDS011;61754;55.008;73.348;2022-07-23T02:20:10;11.45;;;6.47;;
73512;SDS011;61754;55.008;73.348;2022-07-23T02:22:37;10.88;;;7.22;;
73512;SDS011;61754;55.008;73.348;2022-07-23T02:25:04;11.80;;;6.50;;
73512;SDS011;61754;55.008;73.348;2022-07-23T02:27:30;17.38;;;5.05;;
73512;SDS011;61754;55.008;73.348;2022-07-23T02:29:56;5.35;;;3.28;;
73512;SDS011;61754;55.008;73.348;2022-07-23T02:32:23;5.03;;;3.10;;
73512;SDS011;61754;55.008;73.348;2022-07-23T02:34:49;6.65;;;2.95;;
73512;SDS011;61754;55.008;73.348;2022-07-23T02:37:17;7.40;;;3.45;;
73512;SDS011;61754;55.008;73.348;2022-07-23T02:39:43;9.02;;;3.63;;
73512;SDS011;61754;55.008;73.348;2022-07-23T02:42:10;8.55;;;3.40;;
73512;SDS011;61754;55.008;73.348;2022-07-23T02:44:36;5.80;;;3.72;;
73512;SDS011;61754;55.008;73.348;2022-07-23T02:47:03;9.15;;;3.38;;
73512;SDS011;61754;55.008;73.348;2022-07-23T02:49:29;11.38;;;3.50;;
73512;SDS011;61754;55.008;73.348;2022-07-23T02:51:55;6.15;;;3.45;;
73512;SDS011;61754;55.008;73.348;2022-07-23T02:54:21;6.75;;;3.60;;
73512;SDS011;61754;55.008;73.348;2022-07-23T02:56:52;6.00;;;3.42;;
73512;SDS011;61754;55.008;73.348;2022-07-23T02:59:18;6.32;;;3.60;;
73512;SDS011;61754;55.008;73.348;2022-07-23T03:01:46;7.53;;;3.80;;
73512;SDS011;61754;55.008;73.348;2022-07-23T03:04:12;11.82;;;3.88;;
73512;SDS011;61754;55.008;73.348;2022-07-23T03:06:41;14.50;;;4.10;;
73512;SDS011;61754;55.008;73.348;2022-07-23T03:09:17;17.70;;;4.38;;
73512;SDS011;61754;55.008;73.348;2022-07-23T03:11:43;13.18;;;3.92;;
73512;SDS011;61754;55.008;73.348;2022-07-23T03:14:09;9.02;;;3.63;;
73512;SDS011;61754;55.008;73.348;2022-07-23T03:16:39;11.27;;;3.92;;
73512;SDS011;61754;55.008;73.348;2022-07-23T03:19:04;7.88;;;4.28;;
73512;SDS011;61754;55.008;73.348;2022-07-23T03:21:33;10.02;;;4.45;;
73512;SDS011;61754;55.008;73.348;2022-07-23T03:24:00;11.55;;;5.00;;
73512;SDS011;61754;55.008;73.348;2022-07-23T03:26:29;8.77;;;3.63;;
73512;SDS011;61754;55.008;73.348;2022-07-23T03:28:56;17.08;;;4.68;;
73512;SDS011;61754;55.008;73.348;2022-07-23T03:31:29;12.27;;;4.28;;
73512;SDS011;61754;55.008;73.348;2022-07-23T03:34:02;10.80;;;4.50;;
73512;SDS011;61754;55.008;73.348;2022-07-23T03:36:29;14.93;;;4.70;;
73512;SDS011;61754;55.008;73.348;2022-07-23T03:38:55;14.02;;;5.50;;
73512;SDS011;61754;55.008;73.348;2022-07-23T03:41:21;8.35;;;4.53;;
73512;SDS011;61754;55.008;73.348;2022-07-23T03:43:47;14.27;;;5.90;;
73512;SDS011;61754;55.008;73.348;2022-07-23T03:46:17;24.38;;;5.68;;
73512;SDS011;61754;55.008;73.348;2022-07-23T03:48:47;15.25;;;5.75;;
73512;SDS011;61754;55.008;73.348;2022-07-23T03:51:13;16.88;;;4.97;;
73512;SDS011;61754;55.008;73.348;2022-07-23T03:53:47;14.98;;;5.53;;
73512;SDS011;61754;55.008;73.348;2022-07-23T03:56:15;11.27;;;6.07;;
73512;SDS011;61754;55.008;73.348;2022-07-23T03:58:43;9.77;;;4.82;;
73512;SDS011;61754;55.008;73.348;2022-07-23T04:01:09;6.47;;;4.25;;
73512;SDS011;61754;55.008;73.348;2022-07-23T04:03:35;6.63;;;4.93;;
73512;SDS011;61754;55.008;73.348;2022-07-23T04:06:01;11.73;;;4.30;;
73512;SDS011;61754;55.008;73.348;2022-07-23T04:08:29;6.97;;;4.10;;
73512;SDS011;61754;55.008;73.348;2022-07-23T04:10:56;8.60;;;4.38;;
73512;SDS011;61754;55.008;73.348;2022-07-23T04:13:22;10.85;;;3.72;;
73512;SDS011;61754;55.008;73.348;2022-07-23T04:15:48;6.53;;;3.42;;
73512;SDS011;61754;55.008;73.348;2022-07-23T04:18:15;10.82;;;3.40;;
73512;SDS011;61754;55.008;73.348;2022-07-23T04:20:54;12.25;;;3.58;;
73512;SDS011;61754;55.008;73.348;2022-07-23T04:23:20;8.68;;;3.10;;
73512;SDS011;61754;55.008;73.348;2022-07-23T04:25:55;4.30;;;3.33;;
73512;SDS011;61754;55.008;73.348;2022-07-23T04:28:22;7.53;;;3.78;;
73512;SDS011;61754;55.008;73.348;2022-07-23T04:30:48;5.15;;;3.00;;
73512;SDS011;61754;55.008;73.348;2022-07-23T04:33:16;8.57;;;2.90;;
73512;SDS011;61754;55.008;73.348;2022-07-23T04:35:42;4.85;;;2.60;;
73512;SDS011;61754;55.008;73.348;2022-07-23T04:38:18;6.18;;;2.80;;
73512;SDS011;61754;55.008;73.348;2022-07-23T04:40:45;3.50;;;2.92;;
73512;SDS011;61754;55.008;73.348;2022-07-23T04:43:17;4.80;;;3.00;;
73512;SDS011;61754;55.008;73.348;2022-07-23T04:45:45;2.70;;;2.50;;
73512;SDS011;61754;55.008;73.348;2022-07-23T04:48:12;5.82;;;2.90;;
73512;SDS011;61754;55.008;73.348;2022-07-23T04:50:38;6.65;;;2.97;;
73512;SDS011;61754;55.008;73.348;2022-07-23T04:53:14;7.55;;;3.55;;
73512;SDS011;61754;55.008;73.348;2022-07-23T04:55:41;6.85;;;2.95;;
73512;SDS011;61754;55.008;73.348;2022-07-23T04:58:07;6.10;;;2.55;;
73512;SDS011;61754;55.008;73.348;2022-07-23T05:00:33;3.72;;;2.75;;
73512;SDS011;61754;55.008;73.348;2022-07-23T05:03:04;7.47;;;2.50;;
73512;SDS011;61754;55.008;73.348;2022-07-23T05:05:36;3.08;;;2.75;;
73512;SDS011;61754;55.008;73.348;2022-07-23T05:08:09;6.75;;;2.70;;
73512;SDS011;61754;55.008;73.348;2022-07-23T05:10:37;8.27;;;2.88;;
73512;SDS011;61754;55.008;73.348;2022-07-23T05:13:14;4.07;;;1.77;;
73512;SDS011;61754;55.008;73.348;2022-07-23T05:15:41;6.63;;;2.50;;
73512;SDS011;61754;55.008;73.348;2022-07-23T05:18:07;6.60;;;2.33;;
73512;SDS011;61754;55.008;73.348;2022-07-23T05:20:33;4.20;;;2.35;;
73512;SDS011;61754;55.008;73.348;2022-07-23T05:22:59;1.75;;;1.65;;
73512;SDS011;61754;55.008;73.348;2022-07-23T05:25:25;4.38;;;2.17;;
73512;SDS011;61754;55.008;73.348;2022-07-23T05:27:51;4.20;;;2.33;;
73512;SDS011;61754;55.008;73.348;2022-07-23T05:30:17;22.40;;;2.53;;
73512;SDS011;61754;55.008;73.348;2022-07-23T05:32:46;2.80;;;2.17;;
73512;SDS011;61754;55.008;73.348;2022-07-23T05:35:25;5.55;;;2.40;;
73512;SDS011;61754;55.008;73.348;2022-07-23T05:38:13;5.78;;;2.40;;
73512;SDS011;61754;55.008;73.348;2022-07-23T05:40:44;3.65;;;2.50;;
73512;SDS011;61754;55.008;73.348;2022-07-23T05:43:10;3.03;;;2.15;;
73512;SDS011;61754;55.008;73.348;2022-07-23T05:45:37;5.63;;;2.72;;
73512;SDS011;61754;55.008;73.348;2022-07-23T05:48:03;8.13;;;2.85;;
73512;SDS011;61754;55.008;73.348;2022-07-23T05:50:38;3.75;;;2.38;;
73512;SDS011;61754;55.008;73.348;2022-07-23T05:53:13;3.25;;;2.85;;
73512;SDS011;61754;55.008;73.348;2022-07-23T05:55:57;3.60;;;2.70;;
73512;SDS011;61754;55.008;73.348;2022-07-23T05:58:24;2.33;;;2.10;;
73512;SDS011;61754;55.008;73.348;2022-07-23T06:00:50;4.25;;;2.35;;
73512;SDS011;61754;55.008;73.348;2022-07-23T06:03:16;5.55;;;2.13;;
73512;SDS011;61754;55.008;73.348;2022-07-23T06:05:42;5.15;;;2.55;;
73512;SDS011;61754;55.008;73.348;2022-07-23T06:08:15;5.80;;;2.70;;
73512;SDS011;61754;55.008;73.348;2022-07-23T06:10:41;3.42;;;2.70;;
73512;SDS011;61754;55.008;73.348;2022-07-23T06:13:09;3.80;;;2.40;;
73512;SDS011;61754;55.008;73.348;2022-07-23T06:15:35;5.25;;;2.10;;
73512;SDS011;61754;55.008;73.348;2022-07-23T06:18:01;3.42;;;2.22;;
73512;SDS011;61754;55.008;73.348;2022-07-23T06:20:28;3.80;;;2.17;;
73512;SDS011;61754;55.008;73.348;2022-07-23T06:22:56;2.42;;;2.15;;
73512;SDS011;61754;55.008;73.348;2022-07-23T06:25:22;3.20;;;2.67;;
73512;SDS011;61754;55.008;73.348;2022-07-23T06:27:48;3.80;;;2.70;;
73512;SDS011;61754;55.008;73.348;2022-07-23T06:30:15;5.68;;;2.10;;
73512;SDS011;61754;55.008;73.348;2022-07-23T06:32:45;4.53;;;2.22;;
73512;SDS011;61754;55.008;73.348;2022-07-23T06:35:13;5.80;;;2.85;;
73512;SDS011;61754;55.008;73.348;2022-07-23T06:37:39;4.35;;;2.80;;
73512;SDS011;61754;55.008;73.348;2022-07-23T06:40:05;6.35;;;2.60;;
73512;SDS011;61754;55.008;73.348;2022-07-23T06:42:34;4.15;;;2.92;;
73512;SDS011;61754;55.008;73.348;2022-07-23T06:45:03;5.00;;;2.95;;
73512;SDS011;61754;55.008;73.348;2022-07-23T06:47:29;2.58;;;2.33;;
73512;SDS011;61754;55.008;73.348;2022-07-23T06:49:55;4.97;;;2.60;;
73512;SDS011;61754;55.008;73.348;2022-07-23T06:52:23;6.20;;;2.80;;
73512;SDS011;61754;55.008;73.348;2022-07-23T06:54:50;7.75;;;2.95;;
73512;SDS011;61754;55.008;73.348;2022-07-23T06:57:16;5.50;;;2.58;;
73512;SDS011;61754;55.008;73.348;2022-07-23T06:59:42;2.30;;;2.17;;
73512;SDS011;61754;55.008;73.348;2022-07-23T07:02:08;5.20;;;2.80;;
73512;SDS011;61754;55.008;73.348;2022-07-23T07:04:34;3.72;;;2.50;;
73512;SDS011;61754;55.008;73.348;2022-07-23T07:07:01;3.78;;;2.50;;
73512;SDS011;61754;55.008;73.348;2022-07-23T07:09:27;7.05;;;2.60;;
73512;SDS011;61754;55.008;73.348;2022-07-23T07:11:53;2.72;;;2.15;;
73512;SDS011;61754;55.008;73.348;2022-07-23T07:14:19;4.65;;;2.30;;
73512;SDS011;61754;55.008;73.348;2022-07-23T07:16:45;2.40;;;2.20;;
73512;SDS011;61754;55.008;73.348;2022-07-23T07:19:11;2.50;;;2.30;;
73512;SDS011;61754;55.008;73.348;2022-07-23T07:21:37;5.97;;;1.98;;
73512;SDS011;61754;55.008;73.348;2022-07-23T07:24:03;3.20;;;2.20;;
73512;SDS011;61754;55.008;73.348;2022-07-23T07:26:32;4.78;;;2.30;;
73512;SDS011;61754;55.008;73.348;2022-07-23T07:29:07;3.80;;;2.28;;
73512;SDS011;61754;55.008;73.348;2022-07-23T07:31:33;3.10;;;2.80;;
73512;SDS011;61754;55.008;73.348;2022-07-23T07:33:59;4.00;;;2.72;;
73512;SDS011;61754;55.008;73.348;2022-07-23T07:36:25;3.33;;;2.28;;
73512;SDS011;61754;55.008;73.348;2022-07-23T07:38:51;2.60;;;2.40;;
73512;SDS011;61754;55.008;73.348;2022-07-23T07:41:22;3.25;;;2.70;;
73512;SDS011;61754;55.008;73.348;2022-07-23T07:43:54;4.63;;;2.55;;
73512;SDS011;61754;55.008;73.348;2022-07-23T07:46:20;4.35;;;2.90;;
73512;SDS011;61754;55.008;73.348;2022-07-23T07:48:50;5.22;;;2.60;;
73512;SDS011;61754;55.008;73.348;2022-07-23T07:53:49;5.72;;;2.50;;
73512;SDS011;61754;55.008;73.348;2022-07-23T07:56:17;5.43;;;2.63;;
73512;SDS011;61754;55.008;73.348;2022-07-23T07:58:43;4.15;;;2.30;;
73512;SDS011;61754;55.008;73.348;2022-07-23T08:01:13;3.60;;;2.85;;
73512;SDS011;61754;55.008;73.348;2022-07-23T08:03:39;4.38;;;2.40;;
73512;SDS011;61754;55.008;73.348;2022-07-23T08:06:10;3.08;;;2.63;;
73512;SDS011;61754;55.008;73.348;2022-07-23T08:08:36;10.05;;;2.88;;
73512;SDS011;61754;55.008;73.348;2022-07-23T08:11:07;13.05;;;4.13;;
73512;SDS011;61754;55.008;73.348;2022-07-23T08:13:33;10.93;;;4.10;;
73512;SDS011;61754;55.008;73.348;2022-07-23T08:15:59;9.75;;;3.55;;
73512;SDS011;61754;55.008;73.348;2022-07-23T08:18:25;5.75;;;3.40;;
73512;SDS011;61754;55.008;73.348;2022-07-23T08:20:51;5.78;;;3.58;;
73512;SDS011;61754;55.008;73.348;2022-07-23T08:23:17;9.70;;;4.30;;
73512;SDS011;61754;55.008;73.348;2022-07-23T08:25:45;9.10;;;3.97;;
73512;SDS011;61754;55.008;73.348;2022-07-23T08:28:12;12.10;;;5.10;;
73512;SDS011;61754;55.008;73.348;2022-07-23T08:30:43;11.00;;;4.50;;
73512;SDS011;61754;55.008;73.348;2022-07-23T08:33:13;11.27;;;5.15;;
73512;SDS011;61754;55.008;73.348;2022-07-23T08:35:41;18.92;;;5.45;;
73512;SDS011;61754;55.008;73.348;2022-07-23T08:38:09;13.73;;;4.57;;
73512;SDS011;61754;55.008;73.348;2022-07-23T08:40:46;7.43;;;4.60;;
73512;SDS011;61754;55.008;73.348;2022-07-23T08:43:21;15.40;;;4.80;;
73512;SDS011;61754;55.008;73.348;2022-07-23T08:45:48;13.23;;;4.10;;
73512;SDS011;61754;55.008;73.348;2022-07-23T08:48:15;10.32;;;4.20;;
73512;SDS011;61754;55.008;73.348;2022-07-23T08:50:43;10.88;;;3.50;;
73512;SDS011;61754;55.008;73.348;2022-07-23T08:53:09;9.30;;;4.20;;
73512;SDS011;61754;55.008;73.348;2022-07-23T08:55:49;16.33;;;3.90;;
73512;SDS011;61754;55.008;73.348;2022-07-23T08:58:15;7.90;;;3.40;;
73512;SDS011;61754;55.008;73.348;2022-07-23T09:00:42;6.80;;;3.53;;
73512;SDS011;61754;55.008;73.348;2022-07-23T09:03:25;6.65;;;3.83;;
73512;SDS011;61754;55.008;73.348;2022-07-23T09:05:51;12.43;;;3.53;;
73512;SDS011;61754;55.008;73.348;2022-07-23T09:08:18;6.45;;;3.10;;
73512;SDS011;61754;55.008;73.348;2022-07-23T09:10:49;8.45;;;3.45;;
73512;SDS011;61754;55.008;73.348;2022-07-23T09:18:36;10.38;;;3.90;;
73512;SDS011;61754;55.008;73.348;2022-07-23T09:23:38;12.25;;;3.25;;
73512;SDS011;61754;55.008;73.348;2022-07-23T09:26:22;13.23;;;3.30;;
73512;SDS011;61754;55.008;73.348;2022-07-23T09:28:49;9.80;;;2.60;;
73512;SDS011;61754;55.008;73.348;2022-07-23T09:31:20;10.52;;;3.38;;
73512;SDS011;61754;55.008;73.348;2022-07-23T09:33:47;30.05;;;5.80;;
73512;SDS011;61754;55.008;73.348;2022-07-23T09:36:13;25.33;;;6.60;;
73512;SDS011;61754;55.008;73.348;2022-07-23T09:38:48;14.95;;;4.85;;
73512;SDS011;61754;55.008;73.348;2022-07-23T09:41:15;12.75;;;4.57;;
73512;SDS011;61754;55.008;73.348;2022-07-23T09:43:44;12.98;;;3.92;;
73512;SDS011;61754;55.008;73.348;2022-07-23T09:46:19;12.88;;;3.75;;
73512;SDS011;61754;55.008;73.348;2022-07-23T09:48:48;10.73;;;3.85;;
73512;SDS011;61754;55.008;73.348;2022-07-23T09:51:24;9.55;;;3.55;;
73512;SDS011;61754;55.008;73.348;2022-07-23T09:54:02;12.50;;;4.13;;
73512;SDS011;61754;55.008;73.348;2022-07-23T09:56:28;11.70;;;3.83;;
73512;SDS011;61754;55.008;73.348;2022-07-23T09:58:55;10.25;;;4.20;;
73512;SDS011;61754;55.008;73.348;2022-07-23T10:01:35;8.48;;;3.72;;
73512;SDS011;61754;55.008;73.348;2022-07-23T10:04:01;4.88;;;3.17;;
73512;SDS011;61754;55.008;73.348;2022-07-23T10:06:59;3.00;;;2.70;;
73512;SDS011;61754;55.008;73.348;2022-07-23T10:09:52;5.00;;;3.10;;
73512;SDS011;61754;55.008;73.348;2022-07-23T10:12:44;5.45;;;3.20;;
73512;SDS011;61754;55.008;73.348;2022-07-23T10:15:29;10.50;;;3.33;;
73512;SDS011;61754;55.008;73.348;2022-07-23T10:17:55;3.15;;;2.92;;
73512;SDS011;61754;55.008;73.348;2022-07-23T10:20:21;2.83;;;2.63;;
73512;SDS011;61754;55.008;73.348;2022-07-23T10:22:51;2.85;;;2.63;;
73512;SDS011;61754;55.008;73.348;2022-07-23T10:25:28;3.47;;;2.50;;
73512;SDS011;61754;55.008;73.348;2022-07-23T10:33:09;4.13;;;2.67;;
73512;SDS011;61754;55.008;73.348;2022-07-23T10:35:39;4.93;;;2.60;;
73512;SDS011;61754;55.008;73.348;2022-07-23T10:40:35;7.20;;;2.38;;
73512;SDS011;61754;55.008;73.348;2022-07-23T10:43:01;6.40;;;2.78;;
73512;SDS011;61754;55.008;73.348;2022-07-23T10:47:53;3.22;;;2.95;;
73512;SDS011;61754;55.008;73.348;2022-07-23T10:50:30;5.05;;;2.80;;
73512;SDS011;61754;55.008;73.348;2022-07-23T10:53:11;5.00;;;2.85;;
73512;SDS011;61754;55.008;73.348;2022-07-23T10:55:46;7.53;;;2.38;;
73512;SDS011;61754;55.008;73.348;2022-07-23T10:58:19;5.97;;;2.80;;
73512;SDS011;61754;55.008;73.348;2022-07-23T11:00:45;6.88;;;2.97;;
73512;SDS011;61754;55.008;73.348;2022-07-23T11:03:28;8.73;;;3.30;;
73512;SDS011;61754;55.008;73.348;2022-07-23T11:05:56;8.43;;;3.15;;
73512;SDS011;61754;55.008;73.348;2022-07-23T11:08:22;6.68;;;2.63;;
73512;SDS011;61754;55.008;73.348;2022-07-23T11:10:55;5.80;;;2.92;;
73512;SDS011;61754;55.008;73.348;2022-07-23T11:32:04;4.97;;;2.40;;
73512;SDS011;61754;55.008;73.348;2022-07-23T11:36:57;5.75;;;3.25;;
73512;SDS011;61754;55.008;73.348;2022-07-23T11:39:28;7.13;;;2.95;;
73512;SDS011;61754;55.008;73.348;2022-07-23T11:42:05;10.88;;;2.15;;
73512;SDS011;61754;55.008;73.348;2022-07-23T11:47:01;2.92;;;1.63;;
73512;SDS011;61754;55.008;73.348;2022-07-23T11:49:34;6.35;;;1.90;;
73512;SDS011;61754;55.008;73.348;2022-07-23T11:52:13;5.50;;;2.60;;
73512;SDS011;61754;55.008;73.348;2022-07-23T11:54:56;2.75;;;2.30;;
73512;SDS011;61754;55.008;73.348;2022-07-23T11:57:30;7.57;;;2.22;;
73512;SDS011;61754;55.008;73.348;2022-07-23T12:00:09;4.88;;;2.50;;
73512;SDS011;61754;55.008;73.348;2022-07-23T12:05:16;5.88;;;2.78;;
73512;SDS011;61754;55.008;73.348;2022-07-23T12:07:43;7.95;;;3.03;;
73512;SDS011;61754;55.008;73.348;2022-07-23T12:10:16;6.03;;;3.15;;
73512;SDS011;61754;55.008;73.348;2022-07-23T12:13:16;5.15;;;2.78;;
73512;SDS011;61754;55.008;73.348;2022-07-23T12:15:39;4.10;;;2.75;;
73512;SDS011;61754;55.008;73.348;2022-07-23T12:18:07;11.80;;;3.03;;
73512;SDS011;61754;55.008;73.348;2022-07-23T12:20:37;6.43;;;2.90;;
73512;SDS011;61754;55.008;73.348;2022-07-23T12:23:04;9.85;;;3.00;;
73512;SDS011;61754;55.008;73.348;2022-07-23T12:25:32;3.33;;;2.30;;
73512;SDS011;61754;55.008;73.348;2022-07-23T12:28:02;4.47;;;1.80;;
73512;SDS011;61754;55.008;73.348;2022-07-23T12:30:36;7.78;;;2.65;;
73512;SDS011;61754;55.008;73.348;2022-07-23T12:33:03;8.65;;;2.42;;
73512;SDS011;61754;55.008;73.348;2022-07-23T12:38:10;10.43;;;3.22;;
73512;SDS011;61754;55.008;73.348;2022-07-23T12:40:44;21.42;;;3.75;;
73512;SDS011;61754;55.008;73.348;2022-07-23T12:43:18;7.75;;;2.90;;
73512;SDS011;61754;55.008;73.348;2022-07-23T12:45:47;3.95;;;2.58;;
73512;SDS011;61754;55.008;73.348;2022-07-23T12:48:27;7.30;;;2.53;;
73512;SDS011;61754;55.008;73.348;2022-07-23T12:50:59;13.68;;;2.53;;
73512;SDS011;61754;55.008;73.348;2022-07-23T12:53:29;7.72;;;2.42;;
73512;SDS011;61754;55.008;73.348;2022-07-23T13:01:25;10.07;;;3.17;;
73512;SDS011;61754;55.008;73.348;2022-07-23T13:06:37;7.18;;;2.95;;
73512;SDS011;61754;55.008;73.348;2022-07-23T13:09:04;12.02;;;3.00;;
73512;SDS011;61754;55.008;73.348;2022-07-23T13:11:30;8.90;;;3.03;;
73512;SDS011;61754;55.008;73.348;2022-07-23T13:13:56;5.30;;;3.03;;
73512;SDS011;61754;55.008;73.348;2022-07-23T13:16:23;3.72;;;2.88;;
73512;SDS011;61754;55.008;73.348;2022-07-23T13:18:49;7.80;;;2.88;;
73512;SDS011;61754;55.008;73.348;2022-07-23T13:21:15;8.95;;;3.03;;
73512;SDS011;61754;55.008;73.348;2022-07-23T13:23:41;12.25;;;2.80;;
73512;SDS011;61754;55.008;73.348;2022-07-23T13:26:07;3.42;;;2.35;;
73512;SDS011;61754;55.008;73.348;2022-07-23T13:28:33;3.80;;;2.75;;
73512;SDS011;61754;55.008;73.348;2022-07-23T13:31:04;7.00;;;3.13;;
73512;SDS011;61754;55.008;73.348;2022-07-23T13:33:30;6.75;;;2.75;;
73512;SDS011;61754;55.008;73.348;2022-07-23T13:35:56;15.25;;;3.13;;
73512;SDS011;61754;55.008;73.348;2022-07-23T13:38:22;10.32;;;2.63;;
73512;SDS011;61754;55.008;73.348;2022-07-23T13:40:54;8.60;;;3.40;;
73512;SDS011;61754;55.008;73.348;2022-07-23T13:43:22;3.97;;;2.28;;
73512;SDS011;61754;55.008;73.348;2022-07-23T13:45:48;6.03;;;2.60;;
73512;SDS011;61754;55.008;73.348;2022-07-23T13:48:14;6.47;;;3.13;;
73512;SDS011;61754;55.008;73.348;2022-07-23T13:50:41;9.35;;;3.40;;
73512;SDS011;61754;55.008;73.348;2022-07-23T13:53:09;4.90;;;2.47;;
73512;SDS011;61754;55.008;73.348;2022-07-23T13:55:35;3.88;;;2.40;;
73512;SDS011;61754;55.008;73.348;2022-07-23T13:58:04;5.40;;;2.35;;
73512;SDS011;61754;55.008;73.348;2022-07-23T14:00:31;8.02;;;2.70;;
73512;SDS011;61754;55.008;73.348;2022-07-23T14:02:57;10.23;;;2.70;;
73512;SDS011;61754;55.008;73.348;2022-07-23T14:05:23;5.93;;;3.03;;
73512;SDS011;61754;55.008;73.348;2022-07-23T14:07:49;4.95;;;2.70;;
73512;SDS011;61754;55.008;73.348;2022-07-23T14:10:17;7.13;;;3.17;;
73512;SDS011;61754;55.008;73.348;2022-07-23T14:12:44;7.25;;;3.40;;
73512;SDS011;61754;55.008;73.348;2022-07-23T14:15:15;8.27;;;3.30;;
73512;SDS011;61754;55.008;73.348;2022-07-23T14:17:42;5.05;;;3.10;;
73512;SDS011;61754;55.008;73.348;2022-07-23T14:20:09;3.45;;;2.83;;
73512;SDS011;61754;55.008;73.348;2022-07-23T14:22:35;7.65;;;3.72;;
73512;SDS011;61754;55.008;73.348;2022-07-23T14:25:02;13.98;;;3.60;;
73512;SDS011;61754;55.008;73.348;2022-07-23T14:27:28;7.65;;;3.33;;
73512;SDS011;61754;55.008;73.348;2022-07-23T14:29:54;5.35;;;3.53;;
73512;SDS011;61754;55.008;73.348;2022-07-23T14:32:21;5.90;;;3.75;;
73512;SDS011;61754;55.008;73.348;2022-07-23T14:34:47;16.75;;;5.13;;
73512;SDS011;61754;55.008;73.348;2022-07-23T14:37:13;8.15;;;4.18;;
73512;SDS011;61754;55.008;73.348;2022-07-23T14:39:40;9.85;;;4.40;;
73512;SDS011;61754;55.008;73.348;2022-07-23T14:42:06;7.50;;;5.13;;
73512;SDS011;61754;55.008;73.348;2022-07-23T14:44:33;5.90;;;3.42;;
73512;SDS011;61754;55.008;73.348;2022-07-23T14:46:59;3.67;;;3.38;;
73512;SDS011;61754;55.008;73.348;2022-07-23T14:49:33;12.07;;;4.60;;
73512;SDS011;61754;55.008;73.348;2022-07-23T14:51:59;7.63;;;5.18;;
73512;SDS011;61754;55.008;73.348;2022-07-23T14:54:26;19.02;;;4.85;;
73512;SDS011;61754;55.008;73.348;2022-07-23T14:56:52;6.20;;;4.10;;
73512;SDS011;61754;55.008;73.348;2022-07-23T14:59:19;8.35;;;5.82;;
73512;SDS011;61754;55.008;73.348;2022-07-23T15:01:45;8.52;;;6.40;;
73512;SDS011;61754;55.008;73.348;2022-07-23T15:04:17;8.90;;;7.75;;
73512;SDS011;61754;55.008;73.348;2022-07-23T15:06:43;9.32;;;6.32;;
73512;SDS011;61754;55.008;73.348;2022-07-23T15:09:10;11.75;;;6.13;;
73512;SDS011;61754;55.008;73.348;2022-07-23T15:11:40;13.15;;;6.85;;
73512;SDS011;61754;55.008;73.348;2022-07-23T15:14:06;10.35;;;5.28;;
73512;SDS011;61754;55.008;73.348;2022-07-23T15:16:37;13.13;;;6.17;;
73512;SDS011;61754;55.008;73.348;2022-07-23T15:19:04;14.65;;;6.40;;
73512;SDS011;61754;55.008;73.348;2022-07-23T15:21:30;17.08;;;6.40;;
73512;SDS011;61754;55.008;73.348;2022-07-23T15:23:56;13.15;;;5.25;;
73512;SDS011;61754;55.008;73.348;2022-07-23T15:26:26;12.05;;;6.32;;
73512;SDS011;61754;55.008;73.348;2022-07-23T15:28:52;9.68;;;4.47;;
73512;SDS011;61754;55.008;73.348;2022-07-23T15:31:18;10.48;;;4.80;;
73512;SDS011;61754;55.008;73.348;2022-07-23T15:33:44;8.65;;;4.20;;
73512;SDS011;61754;55.008;73.348;2022-07-23T15:36:11;5.82;;;3.72;;
73512;SDS011;61754;55.008;73.348;2022-07-23T15:38:37;5.03;;;3.28;;
73512;SDS011;61754;55.008;73.348;2022-07-23T15:41:03;4.93;;;3.50;;